Time;durP1;ratioP1;P1;durP2;ratioP2;P2;SDS_P1;SDS_P2;PMS_P1;PMS_P2;Temp;Humidity;BMP_temperature;BMP_pressure;BME280_temperature;BME280_humidity;BME280_pressure;Samples;Min_cycle;Max_cycle;Signal;HPM_P1;HPM_P2
2021/07/26 00:01:16;;;;;;;9.40;6.97;;;20.80;99.90;;;;;;4841968;29;20091;-71
2021/07/26 00:03:42;;;;;;;10.52;6.68;;;20.80;99.90;;;;;;4857944;29;20053;-71
2021/07/26 00:06:09;;;;;;;8.48;6.30;;;20.70;99.90;;;;;;4858084;29;20029;-72
2021/07/26 00:08:35;;;;;;;10.70;7.40;;;20.70;99.90;;;;;;4858579;29;20030;-72
2021/07/26 00:11:02;;;;;;;13.35;7.13;;;20.70;99.90;;;;;;4857949;29;20030;-72
2021/07/26 00:13:28;;;;;;;10.10;7.35;;;20.60;99.90;;;;;;4841756;29;20038;-71
2021/07/26 00:15:54;;;;;;;11.57;7.32;;;20.60;99.90;;;;;;4858546;29;20151;-72
2021/07/26 00:18:20;;;;;;;11.68;7.85;;;20.60;99.90;;;;;;4857994;29;20478;-70
2021/07/26 00:20:46;;;;;;;12.65;7.78;;;20.70;99.90;;;;;;4858495;29;20104;-71
2021/07/26 00:23:12;;;;;;;15.20;7.68;;;20.70;99.90;;;;;;4857937;29;20105;-71
2021/07/26 00:25:38;;;;;;;14.15;7.13;;;20.60;99.90;;;;;;4841596;29;20037;-71
2021/07/26 00:28:04;;;;;;;9.63;6.57;;;20.60;99.90;;;;;;4857899;29;20053;-73
2021/07/26 00:30:29;;;;;;;11.90;7.60;;;20.60;99.90;;;;;;4857747;29;20033;-71
2021/07/26 00:32:55;;;;;;;11.20;8.15;;;20.40;99.90;;;;;;4858543;29;20089;-72
2021/07/26 00:35:21;;;;;;;10.10;7.10;;;20.40;99.90;;;;;;4859331;29;20466;-70
2021/07/26 00:37:46;;;;;;;14.15;7.45;;;20.40;99.90;;;;;;4861153;29;20026;-72
2021/07/26 00:40:12;;;;;;;12.40;7.97;;;20.40;99.90;;;;;;4861112;29;20121;-72
2021/07/26 00:42:38;;;;;;;12.90;6.82;;;20.40;99.90;;;;;;4861037;29;20041;-72
2021/07/26 00:45:05;;;;;;;11.98;7.43;;;20.30;99.90;;;;;;4861468;29;20033;-72
2021/07/26 00:47:30;;;;;;;11.33;7.17;;;20.30;99.90;;;;;;4861129;29;20095;-73
2021/07/26 00:49:57;;;;;;;12.32;7.85;;;20.20;99.90;;;;;;4861052;29;20126;-71
2021/07/26 00:52:24;;;;;;;17.58;7.32;;;20.20;99.90;;;;;;4860876;29;20103;-72
2021/07/26 00:54:50;;;;;;;11.63;7.18;;;20.10;99.90;;;;;;4861103;29;20037;-73
2021/07/26 00:57:15;;;;;;;10.40;7.43;;;20.00;99.90;;;;;;4860851;29;20408;-72
2021/07/26 00:59:41;;;;;;;12.10;7.85;;;20.00;99.90;;;;;;4861365;29;20025;-72
2021/07/26 01:02:07;;;;;;;13.35;8.00;;;20.00;99.90;;;;;;4858491;29;20037;-73
2021/07/26 01:04:33;;;;;;;11.50;7.20;;;20.00;99.90;;;;;;4842424;29;20426;-71
2021/07/26 01:06:59;;;;;;;11.02;7.38;;;20.00;99.90;;;;;;4842315;29;20125;-72
2021/07/26 01:09:25;;;;;;;12.90;7.57;;;20.00;99.90;;;;;;4842357;29;20120;-72
2021/07/26 01:11:51;;;;;;;13.98;7.85;;;20.00;99.90;;;;;;4842723;29;20034;-72
2021/07/26 01:14:17;;;;;;;12.32;7.78;;;20.00;99.90;;;;;;4842480;29;20114;-73
2021/07/26 01:16:44;;;;;;;12.95;7.45;;;20.00;99.90;;;;;;4842166;29;20081;-73
2021/07/26 01:19:09;;;;;;;11.95;7.43;;;20.00;99.90;;;;;;4842173;29;20067;-71
2021/07/26 01:21:35;;;;;;;10.93;7.55;;;20.00;99.90;;;;;;4842256;29;20504;-71
2021/07/26 01:24:01;;;;;;;11.45;7.63;;;20.00;99.90;;;;;;4842402;29;20038;-72
2021/07/26 01:26:28;;;;;;;12.02;7.40;;;20.00;99.90;;;;;;4842006;29;20037;-74
2021/07/26 01:29:03;;;;;;;9.35;7.10;;;20.10;99.90;;;;;;4842251;29;20030;-73
2021/07/26 01:31:29;;;;;;;11.65;7.80;;;20.00;99.90;;;;;;4825730;29;20034;-72
2021/07/26 01:33:56;;;;;;;11.52;7.60;;;19.90;99.90;;;;;;4825972;29;20034;-73
2021/07/26 01:36:22;;;;;;;10.98;7.68;;;19.90;99.90;;;;;;4829744;29;20084;-72
2021/07/26 01:38:51;;;;;;;11.95;7.70;;;19.90;99.90;;;;;;4807933;29;20125;-72
2021/07/26 01:41:20;;;;;;;15.75;7.43;;;19.90;99.90;;;;;;4807323;29;20490;-72
2021/07/26 01:44:01;;;;;;;12.85;8.27;;;19.90;99.90;;;;;;4823362;29;20038;-72
2021/07/26 01:46:33;;;;;;;10.55;7.38;;;19.90;99.90;;;;;;4822685;29;20043;-73
2021/07/26 01:49:26;;;;;;;11.63;7.95;;;19.90;99.90;;;;;;4823332;29;20122;-72
2021/07/26 01:51:52;;;;;;;11.65;7.75;;;19.90;99.90;;;;;;4823597;29;20066;-71
2021/07/26 01:54:18;;;;;;;11.65;7.78;;;20.00;99.90;;;;;;4822267;29;20027;-73
2021/07/26 01:56:43;;;;;;;9.55;7.07;;;19.90;99.90;;;;;;4823681;29;20545;-71
2021/07/26 01:59:10;;;;;;;13.60;7.93;;;19.90;99.90;;;;;;4823393;29;20074;-71
2021/07/26 02:01:36;;;;;;;16.20;8.55;;;19.90;99.90;;;;;;4822207;29;20529;-71
2021/07/26 02:04:01;;;;;;;11.82;7.70;;;19.90;99.90;;;;;;4839345;29;20050;-71
2021/07/26 02:06:27;;;;;;;11.93;7.22;;;19.90;99.90;;;;;;4841415;29;20541;-72
2021/07/26 02:08:52;;;;;;;11.05;7.55;;;19.80;99.90;;;;;;4840793;29;20026;-72
2021/07/26 02:11:22;;;;;;;12.07;8.07;;;19.90;99.90;;;;;;4841349;29;20056;-72
2021/07/26 02:13:54;;;;;;;13.45;8.02;;;19.80;99.90;;;;;;4841058;29;20046;-72
2021/07/26 02:16:21;;;;;;;12.02;7.90;;;19.90;99.90;;;;;;4841053;29;20337;-71
2021/07/26 02:18:47;;;;;;;14.07;7.18;;;19.90;99.90;;;;;;4839994;29;20520;-71
2021/07/26 02:21:13;;;;;;;13.02;7.65;;;19.90;99.90;;;;;;4840781;29;20034;-71
2021/07/26 02:23:38;;;;;;;12.48;7.95;;;20.00;99.90;;;;;;4841379;29;20108;-71
2021/07/26 02:26:04;;;;;;;13.18;7.55;;;19.90;99.90;;;;;;4839632;29;20048;-73
2021/07/26 02:28:30;;;;;;;12.48;8.82;;;19.80;99.90;;;;;;4840819;29;20547;-73
2021/07/26 02:30:56;;;;;;;14.80;8.80;;;19.80;99.90;;;;;;4841092;29;20046;-73
2021/07/26 02:33:21;;;;;;;12.10;8.18;;;19.80;99.90;;;;;;4840571;29;20049;-72
2021/07/26 02:35:48;;;;;;;13.98;8.25;;;19.90;99.90;;;;;;4841477;29;20087;-72
2021/07/26 02:38:14;;;;;;;18.30;9.60;;;19.90;99.90;;;;;;4840767;29;20117;-72
2021/07/26 02:40:39;;;;;;;14.02;8.38;;;19.90;99.90;;;;;;4840751;29;20113;-73
2021/07/26 02:43:05;;;;;;;11.77;7.68;;;19.90;99.90;;;;;;4839773;29;20127;-72
2021/07/26 02:45:31;;;;;;;16.25;8.13;;;20.00;99.90;;;;;;4840624;29;20064;-71
2021/07/26 02:47:56;;;;;;;14.02;7.45;;;19.90;99.90;;;;;;4841031;29;20511;-71
2021/07/26 02:50:26;;;;;;;13.43;8.20;;;19.90;99.90;;;;;;4840589;29;20496;-72
2021/07/26 02:52:52;;;;;;;10.50;7.35;;;19.80;99.90;;;;;;4840687;29;20038;-73
2021/07/26 02:55:18;;;;;;;14.20;8.20;;;19.90;99.90;;;;;;4840588;29;20042;-72
2021/07/26 02:57:44;;;;;;;11.63;7.68;;;19.80;99.90;;;;;;4840066;29;20042;-72
2021/07/26 03:00:10;;;;;;;10.05;7.18;;;19.90;99.90;;;;;;4824272;29;20204;-72
2021/07/26 03:02:36;;;;;;;13.15;8.27;;;19.80;99.90;;;;;;4840542;29;20464;-73
2021/07/26 03:05:04;;;;;;;14.68;8.70;;;19.80;99.90;;;;;;4839243;29;20046;-74
2021/07/26 03:07:31;;;;;;;13.75;8.75;;;19.90;99.90;;;;;;4824216;29;20037;-72
2021/07/26 03:09:57;;;;;;;14.43;8.45;;;19.90;99.90;;;;;;4840534;29;20045;-73
2021/07/26 03:12:25;;;;;;;15.63;8.63;;;20.10;99.90;;;;;;4840143;29;20034;-73
2021/07/26 03:14:51;;;;;;;13.05;8.18;;;20.00;99.90;;;;;;4840713;29;20453;-72
2021/07/26 03:17:16;;;;;;;18.98;9.07;;;20.00;99.90;;;;;;4840238;29;20038;-72
2021/07/26 03:19:42;;;;;;;12.55;8.27;;;20.10;99.90;;;;;;4840297;29;20124;-73
2021/07/26 03:22:51;;;;;;;15.95;8.23;;;20.10;99.90;;;;;;4839862;29;20098;-72
2021/07/26 03:25:17;;;;;;;17.17;8.13;;;20.10;99.90;;;;;;4765382;30;20048;-72
2021/07/26 03:27:43;;;;;;;12.25;8.25;;;20.10;99.90;;;;;;4813264;29;20034;-73
2021/07/26 03:30:09;;;;;;;13.82;7.15;;;20.10;99.90;;;;;;4840095;29;20123;-73
2021/07/26 03:32:35;;;;;;;13.38;7.53;;;20.10;99.90;;;;;;4840464;29;20034;-72
2021/07/26 03:35:01;;;;;;;14.63;7.97;;;20.10;99.90;;;;;;4840063;29;20034;-73
2021/07/26 03:37:26;;;;;;;10.50;7.38;;;20.20;99.90;;;;;;4840049;29;20516;-71
2021/07/26 03:39:52;;;;;;;19.20;8.88;;;20.20;99.90;;;;;;4839918;29;20038;-72
2021/07/26 03:42:17;;;;;;;16.30;8.63;;;20.20;99.90;;;;;;4839793;29;20042;-73
2021/07/26 03:44:43;;;;;;;15.50;8.73;;;20.20;99.90;;;;;;4840228;29;20098;-73
2021/07/26 03:47:08;;;;;;;18.65;7.43;;;20.20;99.90;;;;;;4840240;29;20109;-72
2021/07/26 03:49:34;;;;;;;14.55;7.57;;;20.30;99.90;;;;;;4839850;29;20106;-72
2021/07/26 03:52:00;;;;;;;17.13;7.57;;;20.30;99.90;;;;;;4839951;29;20065;-71
2021/07/26 03:54:25;;;;;;;15.13;9.15;;;20.30;99.90;;;;;;4839916;29;20065;-71
2021/07/26 03:56:55;;;;;;;14.52;7.82;;;20.40;99.90;;;;;;4840226;29;20449;-71
2021/07/26 03:59:20;;;;;;;16.17;7.70;;;20.40;99.90;;;;;;4839994;29;20052;-72
2021/07/26 04:01:46;;;;;;;10.40;7.60;;;20.30;99.90;;;;;;4839725;29;20562;-71
2021/07/26 04:04:11;;;;;;;13.25;7.22;;;20.30;99.90;;;;;;4839576;29;20470;-71
2021/07/26 04:06:39;;;;;;;12.82;7.75;;;20.30;99.90;;;;;;4839845;29;20374;-73
2021/07/26 04:09:07;;;;;;;15.02;8.05;;;20.30;99.90;;;;;;4839749;29;20050;-71
2021/07/26 04:11:38;;;;;;;15.63;6.80;;;20.30;99.90;;;;;;4843351;29;20037;-73
2021/07/26 04:14:05;;;;;;;11.93;7.65;;;20.40;99.90;;;;;;4843036;29;20038;-73
2021/07/26 04:16:31;;;;;;;15.90;7.22;;;20.40;99.90;;;;;;4842989;29;20030;-73
2021/07/26 04:18:59;;;;;;;14.95;7.32;;;20.40;99.90;;;;;;4843064;29;20129;-71
2021/07/26 04:21:28;;;;;;;9.18;6.18;;;20.40;99.90;;;;;;4843016;29;20022;-72
2021/07/26 04:23:54;;;;;;;11.45;7.10;;;20.40;99.90;;;;;;4843437;29;20037;-71
2021/07/26 04:26:19;;;;;;;12.95;7.22;;;20.40;99.90;;;;;;4843052;29;20030;-71
2021/07/26 04:28:45;;;;;;;10.40;7.13;;;20.40;99.90;;;;;;4842806;29;20033;-71
2021/07/26 04:31:10;;;;;;;13.23;7.60;;;20.40;99.90;;;;;;4843149;29;20098;-71
2021/07/26 04:33:36;;;;;;;15.35;6.82;;;20.40;99.90;;;;;;4842697;29;20200;-72
2021/07/26 04:36:02;;;;;;;10.95;6.32;;;20.40;99.90;;;;;;4843103;29;20540;-72
2021/07/26 04:38:27;;;;;;;10.85;6.95;;;20.40;99.90;;;;;;4842829;29;20045;-72
2021/07/26 04:40:53;;;;;;;14.45;6.95;;;20.40;99.90;;;;;;4842820;29;20041;-72
2021/07/26 04:43:18;;;;;;;10.60;6.95;;;20.50;99.90;;;;;;4842735;29;20565;-71
2021/07/26 04:45:44;;;;;;;9.52;6.28;;;20.50;99.90;;;;;;4842612;29;20380;-71
2021/07/26 04:48:09;;;;;;;9.10;6.13;;;20.40;99.90;;;;;;4842934;29;20046;-72
2021/07/26 04:50:35;;;;;;;10.60;6.03;;;20.50;99.90;;;;;;4843095;29;20045;-72
2021/07/26 04:53:00;;;;;;;10.90;5.97;;;20.50;99.90;;;;;;4842438;29;20094;-72
2021/07/26 04:55:26;;;;;;;14.02;5.97;;;20.50;99.90;;;;;;4842662;29;20050;-71
2021/07/26 04:57:52;;;;;;;9.15;5.68;;;20.50;99.90;;;;;;4842327;29;20053;-72
2021/07/26 05:00:17;;;;;;;8.77;5.50;;;20.50;99.90;;;;;;4842418;29;20046;-73
2021/07/26 05:02:43;;;;;;;9.73;5.65;;;20.50;99.90;;;;;;4842740;29;20530;-73
2021/07/26 05:05:09;;;;;;;10.10;5.63;;;20.50;99.90;;;;;;4841344;29;20041;-74
2021/07/26 05:07:35;;;;;;;8.00;5.70;;;20.50;99.90;;;;;;4842134;29;20056;-73
2021/07/26 05:10:00;;;;;;;8.30;4.88;;;20.50;99.90;;;;;;4842330;29;20045;-72
2021/07/26 05:12:26;;;;;;;14.60;5.75;;;20.60;99.90;;;;;;4842030;29;20038;-73
2021/07/26 05:14:52;;;;;;;11.13;5.20;;;20.60;99.90;;;;;;4842390;29;20544;-74
2021/07/26 05:17:26;;;;;;;9.85;5.65;;;20.60;99.90;;;;;;4842037;29;20380;-73
2021/07/26 05:19:52;;;;;;;13.02;5.45;;;20.60;99.90;;;;;;4841926;29;20041;-72
2021/07/26 05:22:19;;;;;;;9.65;5.20;;;20.60;99.90;;;;;;4824637;29;20052;-73
2021/07/26 05:24:44;;;;;;;10.85;5.13;;;20.60;99.90;;;;;;4841923;29;20110;-72
2021/07/26 05:27:10;;;;;;;10.10;5.80;;;20.60;99.90;;;;;;4825621;29;20372;-73
2021/07/26 05:29:37;;;;;;;14.25;5.45;;;20.70;99.90;;;;;;4842290;29;20465;-73
2021/07/26 05:32:02;;;;;;;10.95;5.53;;;20.60;99.90;;;;;;4842089;29;20062;-73
2021/07/26 05:34:28;;;;;;;12.18;5.40;;;20.60;99.90;;;;;;4841986;29;20469;-72
2021/07/26 05:36:54;;;;;;;11.02;5.93;;;20.70;99.90;;;;;;4841862;29;20129;-72
2021/07/26 05:39:20;;;;;;;9.73;5.78;;;20.70;99.90;;;;;;4840765;29;20528;-70
2021/07/26 05:41:46;;;;;;;10.10;5.40;;;20.70;99.90;;;;;;4842062;29;20037;-72
2021/07/26 05:44:12;;;;;;;10.73;5.35;;;20.80;99.90;;;;;;4841472;29;20109;-72
2021/07/26 05:46:38;;;;;;;14.00;6.38;;;20.80;99.90;;;;;;4841819;29;20041;-73
2021/07/26 05:49:03;;;;;;;11.60;6.32;;;20.80;99.90;;;;;;4841572;29;20064;-71
2021/07/26 05:51:29;;;;;;;12.15;5.53;;;20.90;99.90;;;;;;4841394;29;20034;-71
2021/07/26 05:53:55;;;;;;;9.55;5.97;;;20.90;99.90;;;;;;4841913;29;20036;-71
2021/07/26 05:56:20;;;;;;;9.73;5.22;;;20.90;99.90;;;;;;4841284;29;20496;-72
2021/07/26 05:58:49;;;;;;;12.02;6.00;;;20.90;99.90;;;;;;4841415;29;20037;-73
2021/07/26 06:03:58;;;;;;;9.02;5.78;;;21.00;99.90;;;;;;4841278;29;19935;-72
2021/07/26 06:06:24;;;;;;;12.50;5.97;;;21.00;99.90;;;;;;4841530;29;20022;-73
2021/07/26 06:08:49;;;;;;;13.82;6.15;;;21.00;99.90;;;;;;4841599;29;20038;-71
2021/07/26 06:11:15;;;;;;;9.15;6.22;;;21.10;99.90;;;;;;4841309;29;20449;-71
2021/07/26 06:13:41;;;;;;;9.27;5.63;;;21.10;99.90;;;;;;4840823;29;20460;-72
2021/07/26 06:16:07;;;;;;;13.55;5.70;;;21.10;99.90;;;;;;4840700;29;20038;-71
2021/07/26 06:18:33;;;;;;;12.43;4.85;;;21.10;99.90;;;;;;4840648;29;20030;-71
2021/07/26 06:22:44;;;;;;;6.70;4.57;;;21.10;99.90;;;;;;5056818;27;20891;-73
2021/07/26 06:25:12;;;;;;;26.33;6.47;;;21.20;99.90;;;;;;5066142;28;20083;-72
2021/07/26 06:27:38;;;;;;;14.13;5.78;;;21.20;99.90;;;;;;5067013;28;20037;-73
2021/07/26 06:30:04;;;;;;;16.92;5.65;;;21.10;99.90;;;;;;5069264;28;20028;-73
2021/07/26 06:32:33;;;;;;;11.98;5.45;;;21.10;99.90;;;;;;5068124;28;20031;-74
2021/07/26 06:34:58;;;;;;;13.40;5.68;;;21.20;99.90;;;;;;5068194;28;20104;-72
2021/07/26 06:37:25;;;;;;;13.68;5.43;;;21.20;99.90;;;;;;5067947;28;20523;-72
2021/07/26 06:39:50;;;;;;;11.02;4.93;;;21.30;99.90;;;;;;5067801;28;20040;-73
2021/07/26 06:42:18;;;;;;;16.27;5.53;;;21.30;99.90;;;;;;5067744;28;20094;-74
2021/07/26 06:44:44;;;;;;;8.27;4.68;;;21.40;99.90;;;;;;5068222;28;20056;-74
2021/07/26 06:47:10;;;;;;;10.25;4.78;;;21.40;99.90;;;;;;5067526;28;20037;-73
2021/07/26 06:49:36;;;;;;;12.50;5.22;;;21.50;99.90;;;;;;5067397;28;20036;-73
2021/07/26 06:52:02;;;;;;;7.22;5.32;;;21.60;99.90;;;;;;5067617;28;20028;-73
2021/07/26 06:54:28;;;;;;;12.57;4.90;;;21.60;99.90;;;;;;5067382;28;20450;-72
2021/07/26 06:56:53;;;;;;;7.40;4.32;;;21.60;99.90;;;;;;5067923;28;20033;-73
2021/07/26 06:59:19;;;;;;;8.38;5.13;;;21.60;99.80;;;;;;5067713;28;20074;-73
2021/07/26 07:01:45;;;;;;;8.52;4.47;;;21.70;99.90;;;;;;5067464;28;20324;-72
2021/07/26 07:04:11;;;;;;;10.88;4.80;;;21.80;99.60;;;;;;5067353;28;20033;-73
2021/07/26 07:06:36;;;;;;;8.85;4.80;;;21.90;99.40;;;;;;5067135;28;20488;-73
2021/07/26 07:09:02;;;;;;;10.27;4.50;;;21.90;99.40;;;;;;5067693;28;20032;-74
2021/07/26 07:11:28;;;;;;;8.10;4.57;;;22.00;99.10;;;;;;5067024;28;20396;-73
2021/07/26 07:13:54;;;;;;;9.05;4.90;;;22.10;99.10;;;;;;5067110;28;20029;-73
2021/07/26 07:16:22;;;;;;;9.25;4.10;;;22.20;99.10;;;;;;5066948;28;20032;-73
2021/07/26 07:18:49;;;;;;;7.45;4.45;;;22.30;98.80;;;;;;5067139;28;20039;-73
2021/07/26 07:21:22;;;;;;;11.10;4.38;;;22.40;98.50;;;;;;5066631;28;20041;-72
2021/07/26 07:23:49;;;;;;;5.82;3.85;;;22.50;98.30;;;;;;5067209;28;20017;-73
2021/07/26 07:26:16;;;;;;;6.00;3.88;;;22.50;98.30;;;;;;5066844;28;20037;-74
2021/07/26 07:28:41;;;;;;;8.45;3.85;;;22.60;98.10;;;;;;5066930;28;20040;-74
2021/07/26 07:31:07;;;;;;;10.60;3.92;;;22.70;98.30;;;;;;5067008;28;20036;-73
2021/07/26 07:33:33;;;;;;;8.15;3.80;;;22.80;97.80;;;;;;5056554;28;20039;-72
2021/07/26 07:36:06;;;;;;;7.22;3.70;;;22.90;98.10;;;;;;5053747;28;20139;-73
2021/07/26 07:38:33;;;;;;;9.60;4.05;;;22.90;97.80;;;;;;5053989;28;20068;-73
2021/07/26 07:40:59;;;;;;;5.17;3.60;;;23.10;97.30;;;;;;5052534;28;20040;-73
2021/07/26 07:43:26;;;;;;;7.25;3.47;;;23.20;96.50;;;;;;5053412;28;20501;-73
2021/07/26 07:45:54;;;;;;;7.85;3.47;;;23.20;96.60;;;;;;5053268;28;20033;-71
2021/07/26 07:48:20;;;;;;;6.03;3.50;;;23.30;96.50;;;;;;5053332;28;20063;-73
2021/07/26 07:50:45;;;;;;;3.92;3.13;;;23.40;96.90;;;;;;5052422;28;20021;-73
2021/07/26 07:53:11;;;;;;;3.40;2.97;;;23.60;96.50;;;;;;5053279;28;20036;-73
2021/07/26 07:55:36;;;;;;;5.13;2.83;;;23.90;95.40;;;;;;5052869;28;20025;-73
2021/07/26 07:58:03;;;;;;;6.68;3.38;;;24.50;94.10;;;;;;5052957;28;20043;-73
2021/07/26 08:00:28;;;;;;;3.88;2.83;;;25.10;94.20;;;;;;5053123;28;20029;-74
2021/07/26 08:02:54;;;;;;;5.40;2.58;;;25.30;92.90;;;;;;5053409;28;20036;-73
2021/07/26 08:05:20;;;;;;;10.80;2.92;;;25.40;92.80;;;;;;5052813;28;20378;-74
2021/07/26 08:07:46;;;;;;;5.72;3.00;;;25.40;92.00;;;;;;5052893;28;20407;-73
2021/07/26 08:10:12;;;;;;;6.18;2.88;;;25.50;92.40;;;;;;5052723;28;20056;-74
2021/07/26 08:12:38;;;;;;;7.25;3.63;;;25.60;91.90;;;;;;5052794;28;20040;-73
2021/07/26 08:15:04;;;;;;;6.10;2.88;;;25.70;91.90;;;;;;5053243;28;20021;-73
2021/07/26 08:17:30;;;;;;;6.20;3.55;;;25.70;91.40;;;;;;5052866;28;20029;-74
2021/07/26 08:19:56;;;;;;;3.92;2.90;;;26.00;92.10;;;;;;5052361;28;20108;-73
2021/07/26 08:22:21;;;;;;;5.65;3.03;;;26.20;91.70;;;;;;5052096;28;20103;-73
2021/07/26 08:24:47;;;;;;;6.68;2.72;;;26.40;91.10;;;;;;5052144;28;20071;-75
2021/07/26 08:27:12;;;;;;;6.78;3.05;;;26.60;91.70;;;;;;5052445;28;20044;-72
2021/07/26 08:29:38;;;;;;;6.82;3.33;;;26.80;91.00;;;;;;5052860;28;20024;-74
2021/07/26 08:32:04;;;;;;;6.82;3.13;;;27.10;90.30;;;;;;5052314;28;20032;-73
2021/07/26 08:34:29;;;;;;;4.55;2.97;;;27.50;91.00;;;;;;5051289;28;20499;-75
2021/07/26 08:36:55;;;;;;;4.90;3.38;;;28.50;89.70;;;;;;5052447;28;20037;-74
2021/07/26 08:39:21;;;;;;;3.83;2.70;;;29.50;85.20;;;;;;5051092;28;20024;-73
2021/07/26 08:41:47;;;;;;;4.82;2.95;;;30.20;83.20;;;;;;5052660;28;20029;-73
2021/07/26 08:44:13;;;;;;;6.20;3.13;;;31.10;81.10;;;;;;5051199;28;20040;-73
2021/07/26 08:46:42;;;;;;;7.13;3.78;;;32.20;80.50;;;;;;5051025;28;20040;-73
2021/07/26 08:49:09;;;;;;;4.35;2.80;;;33.10;75.40;;;;;;5052288;28;20029;-72
2021/07/26 08:51:35;;;;;;;5.63;3.17;;;33.90;70.60;;;;;;5051860;28;20051;-72
2021/07/26 08:54:02;;;;;;;5.40;3.08;;;34.40;68.50;;;;;;5052093;28;20029;-72
2021/07/26 08:56:28;;;;;;;4.13;2.72;;;34.60;66.50;;;;;;5052020;28;20033;-73
2021/07/26 08:58:54;;;;;;;4.72;2.85;;;35.10;64.50;;;;;;5051999;28;20564;-74
2021/07/26 09:01:19;;;;;;;10.55;3.00;;;35.50;63.30;;;;;;5050519;28;20033;-73
2021/07/26 09:03:49;;;;;;;4.13;2.20;;;36.10;61.90;;;;;;5051693;28;20048;-75
2021/07/26 09:06:15;;;;;;;7.32;3.13;;;36.40;59.30;;;;;;5051609;28;20033;-74
2021/07/26 09:08:41;;;;;;;5.90;2.85;;;36.60;57.40;;;;;;5052007;28;20032;-74
2021/07/26 09:11:08;;;;;;;6.43;2.85;;;36.70;55.50;;;;;;5050503;28;20044;-73
2021/07/26 09:13:47;;;;;;;3.78;2.85;;;36.70;55.70;;;;;;5051827;28;20522;-74
2021/07/26 09:16:25;;;;;;;3.88;2.75;;;37.10;54.50;;;;;;5051528;28;20045;-74
2021/07/26 09:19:08;;;;;;;5.47;2.90;;;37.10;53.90;;;;;;5051476;28;20033;-74
2021/07/26 09:21:49;;;;;;;3.53;2.33;;;37.00;53.90;;;;;;5051291;28;20045;-74
2021/07/26 09:24:14;;;;;;;6.20;2.30;;;36.70;52.60;;;;;;5051441;28;20108;-73
2021/07/26 09:26:40;;;;;;;4.10;2.72;;;36.70;52.50;;;;;;5051870;28;20096;-72
2021/07/26 09:29:25;;;;;;;3.85;2.60;;;36.30;51.90;;;;;;5051394;28;20083;-73
2021/07/26 09:32:02;;;;;;;5.22;2.78;;;36.90;53.10;;;;;;5051285;28;20031;-76
2021/07/26 09:34:28;;;;;;;4.30;2.55;;;36.50;51.90;;;;;;5050211;28;20044;-73
2021/07/26 09:36:54;;;;;;;3.57;2.53;;;36.30;50.80;;;;;;5051331;28;20037;-74
2021/07/26 09:39:27;;;;;;;4.63;2.63;;;36.10;50.40;;;;;;5051078;28;20257;-73
2021/07/26 09:41:54;;;;;;;4.15;2.45;;;36.20;52.00;;;;;;5051481;28;20039;-74
2021/07/26 09:44:27;;;;;;;3.40;2.35;;;36.10;51.20;;;;;;5050225;28;20029;-73
2021/07/26 09:46:53;;;;;;;4.47;2.50;;;36.00;51.10;;;;;;5050889;28;20029;-74
2021/07/26 09:49:20;;;;;;;3.42;2.47;;;35.40;50.60;;;;;;5051124;28;20071;-74
2021/07/26 09:52:03;;;;;;;4.05;2.53;;;35.00;52.30;;;;;;5051004;28;20060;-73
2021/07/26 09:54:43;;;;;;;2.90;2.40;;;34.90;52.50;;;;;;5051140;28;20166;-74
2021/07/26 09:57:20;;;;;;;3.97;2.60;;;34.40;52.50;;;;;;5050848;28;20027;-73
2021/07/26 09:59:47;;;;;;;4.23;2.40;;;33.60;52.60;;;;;;5051198;28;20349;-72
2021/07/26 10:02:14;;;;;;;6.17;3.03;;;32.60;54.20;;;;;;5050733;28;20052;-73
2021/07/26 10:04:42;;;;;;;3.80;2.58;;;32.30;55.40;;;;;;5049576;28;20036;-72
2021/07/26 10:07:09;;;;;;;5.18;2.50;;;32.00;55.80;;;;;;5050537;28;20506;-73
2021/07/26 10:09:35;;;;;;;5.13;2.92;;;31.80;56.10;;;;;;5050649;28;20438;-73
2021/07/26 10:12:01;;;;;;;4.75;2.63;;;31.80;57.10;;;;;;5051030;28;20035;-72
2021/07/26 10:14:27;;;;;;;5.43;2.75;;;31.30;57.60;;;;;;5050673;28;20116;-72
2021/07/26 10:16:58;;;;;;;4.30;2.80;;;31.10;57.60;;;;;;5050353;28;20148;-73
2021/07/26 10:19:23;;;;;;;5.15;2.78;;;31.00;57.60;;;;;;5049442;28;20052;-73
2021/07/26 10:21:55;;;;;;;7.00;2.67;;;31.10;58.60;;;;;;5050301;28;20041;-74
2021/07/26 10:24:21;;;;;;;4.90;3.08;;;31.10;58.70;;;;;;5049561;28;20457;-73
2021/07/26 10:26:47;;;;;;;4.13;2.67;;;31.10;58.90;;;;;;5050852;28;20017;-72
2021/07/26 10:29:13;;;;;;;3.45;2.42;;;31.10;59.50;;;;;;5050564;28;20029;-74
2021/07/26 10:31:39;;;;;;;5.65;2.65;;;31.10;59.90;;;;;;5050546;28;20043;-74
2021/07/26 10:34:15;;;;;;;5.88;2.75;;;31.20;59.50;;;;;;5050480;28;20469;-72
2021/07/26 10:36:41;;;;;;;5.37;2.50;;;31.10;59.30;;;;;;5050477;28;20029;-72
2021/07/26 10:39:08;;;;;;;3.55;2.50;;;31.10;58.70;;;;;;5050222;28;20107;-73
2021/07/26 10:41:42;;;;;;;3.33;1.98;;;31.00;57.90;;;;;;5051104;28;20411;-73
2021/07/26 10:44:17;;;;;;;2.42;2.00;;;31.10;56.50;;;;;;5050710;28;20035;-73
2021/07/26 10:47:05;;;;;;;2.78;1.85;;;30.90;56.50;;;;;;5049222;28;20073;-73
2021/07/26 10:49:43;;;;;;;2.95;1.80;;;31.00;55.50;;;;;;5046769;28;20025;-73
2021/07/26 10:52:10;;;;;;;4.07;2.33;;;30.90;55.30;;;;;;5050559;28;20029;-73
2021/07/26 10:54:36;;;;;;;4.43;2.10;;;30.80;56.50;;;;;;5050261;28;20037;-73
2021/07/26 10:57:02;;;;;;;3.90;2.35;;;30.60;57.10;;;;;;5049647;28;20029;-72
2021/07/26 10:59:29;;;;;;;3.05;2.28;;;30.50;57.30;;;;;;5050309;28;20037;-73
2021/07/26 11:01:57;;;;;;;2.87;2.10;;;30.60;57.50;;;;;;5050095;28;20041;-73
2021/07/26 11:04:37;;;;;;;3.55;2.30;;;30.80;57.80;;;;;;5050215;28;20045;-72
2021/07/26 11:07:04;;;;;;;5.00;2.28;;;30.80;57.30;;;;;;5048962;28;20102;-73
2021/07/26 11:09:40;;;;;;;2.20;1.70;;;30.60;57.60;;;;;;5053930;28;20476;-74
2021/07/26 11:12:06;;;;;;;4.05;2.17;;;30.70;57.30;;;;;;5053786;28;20025;-73
2021/07/26 11:14:32;;;;;;;3.15;2.05;;;30.50;56.70;;;;;;5054332;28;20036;-72
2021/07/26 11:17:09;;;;;;;3.55;2.17;;;30.60;57.00;;;;;;5053792;28;20029;-73
2021/07/26 11:19:40;;;;;;;2.60;1.92;;;30.50;57.50;;;;;;5053713;28;20125;-72
2021/07/26 11:22:15;;;;;;;2.78;1.80;;;30.60;57.50;;;;;;5053415;28;20041;-73
2021/07/26 11:24:40;;;;;;;3.10;2.15;;;30.60;57.10;;;;;;5053771;28;20033;-73
2021/07/26 11:27:10;;;;;;;5.38;1.98;;;30.60;56.90;;;;;;5052539;28;20032;-73
2021/07/26 11:29:36;;;;;;;2.85;2.13;;;30.60;56.80;;;;;;5054244;28;20029;-72
2021/07/26 11:32:01;;;;;;;3.33;1.83;;;30.50;55.90;;;;;;5053494;28;20040;-72
2021/07/26 11:34:29;;;;;;;7.20;2.10;;;30.50;56.30;;;;;;5053528;28;20036;-72
2021/07/26 11:37:07;;;;;;;2.83;1.95;;;30.30;56.30;;;;;;5053671;28;20039;-72
2021/07/26 11:39:46;;;;;;;;;;;30.40;57.00;;;;;;5053770;28;20545;-72
2021/07/26 11:42:12;;;;;;;4.25;2.10;;;30.30;57.50;;;;;;5053622;28;20390;-72
2021/07/26 11:44:42;;;;;;;6.57;2.13;;;30.40;57.80;;;;;;5053762;28;20025;-73
2021/07/26 11:47:08;;;;;;;3.08;2.30;;;30.50;57.30;;;;;;5053475;28;20061;-72
2021/07/26 11:49:34;;;;;;;3.13;1.80;;;30.20;56.50;;;;;;5052198;28;20052;-72
2021/07/26 11:52:07;;;;;;;2.95;2.13;;;30.10;56.80;;;;;;5053216;28;20059;-73
2021/07/26 11:54:33;;;;;;;4.60;2.33;;;30.10;57.00;;;;;;5051916;28;20032;-73
2021/07/26 11:57:17;;;;;;;2.72;2.13;;;30.00;57.30;;;;;;5053691;28;20029;-74
2021/07/26 11:59:53;;;;;;;4.85;2.33;;;29.90;57.10;;;;;;5053253;28;20592;-73
2021/07/26 12:02:39;;;;;;;3.25;1.77;;;29.90;56.20;;;;;;5052803;28;20102;-73
2021/07/26 12:05:09;;;;;;;4.18;2.88;;;29.90;56.50;;;;;;5053013;28;20033;-74
2021/07/26 12:07:45;;;;;;;7.65;2.45;;;29.90;56.20;;;;;;5052931;28;20053;-74
2021/07/26 12:10:15;;;;;;;3.65;2.15;;;29.80;56.00;;;;;;5052704;28;20040;-73
2021/07/26 12:12:49;;;;;;;7.20;2.08;;;29.60;56.30;;;;;;5053498;28;20026;-72
2021/07/26 12:15:26;;;;;;;2.83;2.03;;;29.60;56.60;;;;;;5052766;28;20112;-74
2021/07/26 12:18:05;;;;;;;3.63;1.92;;;29.60;57.10;;;;;;5053292;28;20014;-72
2021/07/26 12:20:33;;;;;;;3.15;2.20;;;29.60;57.10;;;;;;5052336;28;20106;-73
2021/07/26 12:23:13;;;;;;;4.20;2.25;;;29.50;57.20;;;;;;5052781;28;20481;-73
2021/07/26 12:25:46;;;;;;;2.85;2.05;;;29.30;56.00;;;;;;5052535;28;20079;-73
2021/07/26 12:28:13;;;;;;;2.95;2.30;;;29.30;56.20;;;;;;5052842;28;20043;-73
2021/07/26 12:30:41;;;;;;;3.00;2.55;;;29.50;56.20;;;;;;5052467;28;20052;-73
2021/07/26 12:33:08;;;;;;;4.43;2.33;;;29.50;56.10;;;;;;5052472;28;20021;-72
2021/07/26 12:35:34;;;;;;;1.50;1.40;;;29.60;56.40;;;;;;5052879;28;20108;-74
2021/07/26 12:38:18;;;;;;;2.67;2.00;;;29.50;56.70;;;;;;5052287;28;20371;-74
2021/07/26 12:40:48;;;;;;;3.97;2.58;;;29.60;56.50;;;;;;5052177;28;20044;-73
2021/07/26 12:43:14;;;;;;;4.32;2.40;;;29.40;55.90;;;;;;5052242;28;20466;-73
2021/07/26 12:45:44;;;;;;;13.98;6.40;;;29.30;56.10;;;;;;5052215;28;20120;-73
2021/07/26 12:48:11;;;;;;;3.97;2.75;;;29.20;56.40;;;;;;5051267;28;20332;-74
2021/07/26 12:50:41;;;;;;;3.50;2.28;;;29.10;56.60;;;;;;5052484;28;20029;-73